| time (UTC) | temp F | wind direction | speed knots | gust knots | rain 1hr in | rain 24hr in | rain mn in | humidity % | barometer mb |
| 20260507153040 | 61 | 254 | 10.4 | 16.5 | 0.00 | 0.02 | 0.00 | 46 | 1015.4 |
| 20260507151532 | 59 | 243 | 7.8 | 15.6 | 0.00 | 0.02 | 0.00 | 50 | 1015.5 |
| 20260507150029 | 58 | 263 | 11.3 | 17.4 | 0.00 | 0.02 | 0.00 | 51 | 1015.6 |
| 20260507144523 | 56 | 269 | 11.3 | 18.2 | 0.00 | 0.03 | 0.00 | 56 | 1015.8 |
| 20260507143021 | 54 | 254 | 9.6 | 14.8 | 0.00 | 0.03 | 0.00 | 62 | 1015.8 |
| 20260507141517 | 51 | 248 | 9.6 | 16.5 | 0.00 | 0.03 | 0.00 | 64 | 1015.8 |
| 20260507140006 | 49 | 250 | 2.6 | 11.3 | 0.00 | 0.04 | 0.00 | 69 | 1016.1 |
| 20260507134501 | 47 | 263 | 1.7 | 7.8 | 0.00 | 0.04 | 0.00 | 74 | 1016.0 |
| 20260507133058 | 45 | 245 | 2.6 | 9.6 | 0.00 | 0.04 | 0.00 | 76 | 1016.2 |
| 20260507131601 | 43 | 261 | 1.7 | 7.0 | 0.00 | 0.04 | 0.00 | 78 | 1016.0 |
| 20260507130054 | 42 | 252 | 2.6 | 7.8 | 0.00 | 0.04 | 0.00 | 79 | 1016.1 |
| 20260507124551 | 41 | 260 | 1.7 | 5.2 | 0.00 | 0.04 | 0.00 | 80 | 1015.8 |
| 20260507123042 | 40 | 243 | 1.7 | 7.8 | 0.00 | 0.04 | 0.00 | 82 | 1015.7 |
| 20260507121536 | 39 | 243 | 0.9 | 6.1 | 0.00 | 0.04 | 0.00 | 82 | 1016.1 |
| 20260507120031 | 39 | 246 | 1.7 | 5.2 | 0.00 | 0.04 | 0.00 | 83 | 1015.9 |
| 20260507114550 | 38 | 252 | 1.7 | 7.0 | 0.00 | 0.05 | 0.00 | 83 | 1016.2 |
| 20260507113048 | 38 | 240 | 1.7 | 4.3 | 0.00 | 0.05 | 0.00 | 84 | 1016.4 |
| 20260507111535 | 38 | 236 | 1.7 | 4.3 | 0.00 | 0.05 | 0.00 | 84 | 1016.4 |
| 20260507110025 | 38 | 248 | 0.9 | 5.2 | 0.00 | 0.05 | 0.00 | 85 | 1016.4 |
| 20260507104527 | 38 | 238 | 1.7 | 4.3 | 0.00 | 0.06 | 0.00 | 85 | 1016.8 |
| 20260507103025 | 38 | 243 | 1.7 | 4.3 | 0.00 | 0.06 | 0.00 | 85 | 1016.8 |
| 20260507101520 | 38 | 246 | 1.7 | 4.3 | 0.00 | 0.06 | 0.00 | 85 | 1017.1 |
| 20260507100017 | 38 | 227 | 1.7 | 5.2 | 0.00 | 0.06 | 0.00 | 85 | 1017.1 |
| 20260507094517 | 38 | 246 | 1.7 | 8.7 | 0.00 | 0.06 | 0.00 | 84 | 1017.2 |
| 20260507093014 | 39 | 216 | 1.7 | 8.7 | 0.00 | 0.06 | 0.00 | 85 | 1017.5 |
| 20260507091512 | 38 | 253 | 1.7 | 7.0 | 0.00 | 0.06 | 0.00 | 86 | 1017.6 |
| 20260507090010 | 38 | 244 | 1.7 | 5.2 | 0.00 | 0.07 | 0.00 | 87 | 1017.9 |
| 20260507084508 | 37 | 248 | 0.9 | 4.3 | 0.00 | 0.07 | 0.00 | 87 | 1018.2 |
| 20260507083006 | 37 | 242 | 1.7 | 8.7 | 0.00 | 0.07 | 0.00 | 87 | 1018.3 |
| 20260507081506 | 37 | 360 | 1.7 | 7.8 | 0.00 | 0.07 | 0.00 | 88 | 1018.5 |
| 20260507080001 | 37 | 360 | 1.7 | 9.6 | 0.00 | 0.08 | 0.00 | 88 | 1018.8 |
| 20260507074603 | 37 | 360 | 3.5 | 9.6 | 0.00 | 0.08 | 0.00 | 88 | 1018.9 |
| 20260507073100 | 37 | 239 | 3.5 | 8.7 | 0.00 | 0.08 | 0.00 | 87 | 1019.2 |
| 20260507071554 | 37 | 360 | 3.5 | 7.8 | 0.00 | 0.08 | 0.00 | 88 | 1019.4 |
| 20260507070052 | 38 | 150 | 1.7 | 8.7 | 0.00 | 0.08 | 0.00 | 87 | 1019.6 |
| 20260507064552 | 38 | 360 | 2.6 | 9.6 | 0.00 | 0.08 | 0.00 | 88 | 1019.8 |
| 20260507063047 | 38 | 360 | 2.6 | 8.7 | 0.00 | 0.08 | 0.00 | 88 | 1020.0 |
| 20260507061545 | 38 | 360 | 7.0 | 10.4 | 0.00 | 0.08 | 0.00 | 88 | 1020.3 |
| 20260507060042 | 38 | 360 | 5.2 | 8.7 | 0.00 | 0.08 | 0.00 | 87 | 1020.3 |
| 20260507054539 | 39 | 360 | 4.3 | 9.6 | 0.00 | 0.09 | 0.00 | 87 | 1020.4 |
| 20260507053038 | 39 | 360 | 2.6 | 10.4 | 0.00 | 0.09 | 0.00 | 87 | 1020.4 |
| 20260507051535 | 40 | 360 | 2.6 | 10.4 | 0.00 | 0.09 | 0.00 | 87 | 1020.4 |
| 20260507050032 | 40 | 230 | 3.5 | 9.6 | 0.00 | 0.09 | 0.00 | 87 | 1020.6 |
| 20260507044531 | 39 | 225 | 4.3 | 10.4 | 0.00 | 0.10 | 0.09 | 87 | 1020.8 |
| 20260507043033 | 39 | 214 | 1.7 | 6.1 | 0.00 | 0.10 | 0.09 | 86 | 1020.9 |
| 20260507041529 | 40 | 190 | 1.7 | 5.2 | 0.00 | 0.10 | 0.09 | 85 | 1021.0 |
| 20260507040028 | 41 | 360 | 1.7 | 6.1 | 0.00 | 0.10 | 0.09 | 85 | 1020.9 |
| 20260507034534 | 41 | 223 | 2.6 | 7.0 | 0.00 | 0.12 | 0.09 | 85 | 1020.9 |
| 20260507033028 | 41 | 228 | 1.7 | 7.8 | 0.00 | 0.12 | 0.09 | 85 | 1021.1 |
| 20260507031527 | 41 | 360 | 0.9 | 7.8 | 0.00 | 0.12 | 0.09 | 85 | 1021.0 |
| 20260507030027 | 42 | 360 | 0.9 | 7.0 | 0.00 | 0.12 | 0.09 | 84 | 1021.1 |
| 20260507024523 | 42 | 360 | 0.9 | 4.3 | 0.00 | 0.13 | 0.09 | 83 | 1021.1 |
| 20260507023022 | 43 | 360 | 1.7 | 5.2 | 0.00 | 0.13 | 0.09 | 82 | 1021.0 |
| 20260507021522 | 44 | 360 | 1.7 | 5.2 | 0.00 | 0.13 | 0.09 | 81 | 1020.9 |
| 20260507020041 | 44 | 360 | 0.9 | 4.3 | 0.00 | 0.13 | 0.09 | 80 | 1020.9 |
| 20260507014519 | 45 | 360 | 2.6 | 7.8 | 0.00 | 0.14 | 0.09 | 79 | 1020.9 |
| 20260507013022 | 45 | 360 | 6.1 | 8.7 | 0.00 | 0.14 | 0.09 | 78 | 1020.9 |
| 20260507011530 | 46 | 266 | 6.1 | 10.4 | 0.00 | 0.14 | 0.09 | 77 | 1020.9 |
| 20260507010017 | 46 | 360 | 7.0 | 11.3 | 0.00 | 0.14 | 0.09 | 76 | 1020.7 |
| 20260507004515 | 47 | 241 | 9.6 | 12.2 | 0.00 | 0.15 | 0.09 | 75 | 1020.6 |
| 20260507003013 | 47 | 241 | 8.7 | 14.8 | 0.00 | 0.15 | 0.09 | 76 | 1020.7 |
| 20260507001538 | 46 | 239 | 8.7 | 12.2 | 0.00 | 0.15 | 0.09 | 79 | 1021.1 |
| 20260507000013 | 46 | 282 | 4.3 | 8.7 | 0.00 | 0.15 | 0.09 | 79 | 1021.0 |
| 20260506234507 | 46 | 240 | 8.7 | 13.0 | 0.00 | 0.15 | 0.09 | 75 | 1020.9 |
| 20260506233006 | 47 | 259 | 9.6 | 13.0 | 0.00 | 0.15 | 0.09 | 76 | 1021.0 |
| 20260506231608 | 46 | 360 | 7.8 | 12.2 | 0.00 | 0.15 | 0.09 | 75 | 1020.9 |
| 20260506230005 | 47 | 360 | 4.3 | 13.0 | 0.00 | 0.16 | 0.09 | 76 | 1020.9 |
| 20260506224504 | 47 | 360 | 9.6 | 13.0 | 0.00 | 0.16 | 0.09 | 75 | 1020.9 |
| 20260506223004 | 47 | 360 | 8.7 | 13.9 | 0.00 | 0.16 | 0.09 | 76 | 1020.9 |
| 20260506221504 | 47 | 360 | 8.7 | 14.8 | 0.00 | 0.16 | 0.09 | 76 | 1020.9 |
| 20260506220003 | 49 | 221 | 3.5 | 8.7 | 0.00 | 0.17 | 0.09 | 74 | 1020.9 |
| 20260506214501 | 49 | 360 | 3.5 | 8.7 | 0.00 | 0.17 | 0.09 | 72 | 1021.2 |
| 20260506213106 | 50 | 360 | 2.6 | 9.6 | 0.00 | 0.17 | 0.09 | 72 | 1021.2 |
| 20260506211558 | 49 | 360 | 3.5 | 8.7 | 0.00 | 0.17 | 0.09 | 73 | 1021.5 |
| 20260506210100 | 49 | 360 | 0.9 | 7.0 | 0.00 | 0.17 | 0.09 | 76 | 1021.6 |
| 20260506204557 | 48 | 360 | 3.5 | 7.8 | 0.00 | 0.17 | 0.09 | 77 | 1021.8 |
| 20260506203110 | 47 | 360 | 2.6 | 7.0 | 0.00 | 0.17 | 0.09 | 75 | 1021.8 |
| 20260506201548 | 46 | 360 | 0.9 | 3.5 | 0.01 | 0.17 | 0.09 | 80 | 1021.8 |
| 20260506200054 | 45 | 294 | 0.9 | 2.6 | 0.01 | 0.17 | 0.09 | 83 | 1021.9 |
| 20260506194547 | 44 | 360 | 0.9 | 5.2 | 0.01 | 0.17 | 0.09 | 82 | 1022.1 |
| 20260506193050 | 44 | 360 | 0.9 | 3.5 | 0.01 | 0.17 | 0.09 | 81 | 1022.1 |
| 20260506191545 | 46 | 360 | 0.0 | 3.5 | 0.00 | 0.16 | 0.08 | 79 | 1022.1 |
| 20260506190045 | 44 | 14 | 0.0 | 0.0 | 0.00 | 0.16 | 0.08 | 80 | 1022.2 |
| 20260506184545 | 43 | 14 | 0.0 | 1.7 | 0.00 | 0.17 | 0.08 | 81 | 1022.5 |
| 20260506183114 | 43 | 14 | 0.0 | 1.7 | 0.00 | 0.17 | 0.08 | 82 | 1022.5 |
| 20260506181545 | 42 | 15 | 0.0 | 2.6 | 0.00 | 0.17 | 0.08 | 83 | 1022.5 |
| 20260506180038 | 42 | 48 | 0.9 | 4.3 | 0.01 | 0.17 | 0.08 | 82 | 1022.7 |
| 20260506174538 | 43 | 32 | 1.7 | 4.3 | 0.01 | 0.17 | 0.08 | 83 | 1022.7 |
| 20260506173039 | 43 | 28 | 0.0 | 3.5 | 0.01 | 0.17 | 0.08 | 84 | 1022.7 |
| 20260506171535 | 42 | 44 | 0.0 | 3.5 | 0.01 | 0.17 | 0.08 | 85 | 1022.7 |
| 20260506170031 | 42 | 53 | 2.6 | 5.2 | 0.00 | 0.16 | 0.07 | 85 | 1022.7 |
| 20260506164544 | 42 | 26 | 0.9 | 3.5 | 0.00 | 0.16 | 0.07 | 85 | 1022.7 |
| 20260506163025 | 42 | 35 | 1.7 | 3.5 | 0.00 | 0.16 | 0.07 | 87 | 1022.5 |
| 20260506161523 | 41 | 35 | 0.9 | 4.3 | 0.00 | 0.16 | 0.07 | 88 | 1022.2 |
| 20260506160021 | 41 | 69 | 0.9 | 3.5 | 0.00 | 0.16 | 0.07 | 90 | 1022.0 |
| 20260506154520 | 41 | 71 | 0.9 | 5.2 | 0.01 | 0.16 | 0.07 | 91 | 1021.6 |